Time;durP1;ratioP1;P1;durP2;ratioP2;P2;SDS_P1;SDS_P2;PMS_P1;PMS_P2;Temp;Humidity;BMP_temperature;BMP_pressure;BME280_temperature;BME280_humidity;BME280_pressure;Samples;Min_cycle;Max_cycle;Signal;HPM_P1;HPM_P2
2021/04/23 00:00:59;;;;;;;11.57;5.57;;;6.20;99.90;;;;;;5115363;28;20483;-68
2021/04/23 00:06:38;;;;;;;5.33;4.80;;;6.20;99.90;;;;;;5092014;27;21035;-68
2021/04/23 00:14:29;;;;;;;14.63;6.50;;;6.10;99.90;;;;;;5090404;28;20896;-67
2021/04/23 00:16:55;;;;;;;11.80;7.63;;;6.10;99.90;;;;;;5090443;28;20424;-68
2021/04/23 00:19:23;;;;;;;9.07;5.80;;;6.10;99.90;;;;;;5090851;28;20393;-67
2021/04/23 00:21:51;;;;;;;11.60;5.87;;;6.10;99.90;;;;;;5084667;28;20406;-68
2021/04/23 00:24:17;;;;;;;12.37;6.83;;;6.10;99.90;;;;;;5069950;28;20425;-67
2021/04/23 00:26:43;;;;;;;12.67;6.87;;;6.10;99.90;;;;;;5069912;28;20432;-67
2021/04/23 00:29:09;;;;;;;11.40;6.43;;;6.00;99.90;;;;;;5069937;28;20387;-68
2021/04/23 00:31:36;;;;;;;14.13;5.93;;;6.00;99.90;;;;;;5082316;28;20842;-68
2021/04/23 00:34:03;;;;;;;11.33;5.77;;;6.00;99.90;;;;;;5090298;28;20438;-67
2021/04/23 00:36:29;;;;;;;11.17;6.67;;;6.00;99.90;;;;;;5090072;28;20454;-67
2021/04/23 00:38:54;;;;;;;8.60;5.67;;;6.00;99.90;;;;;;5089185;28;20501;-67
2021/04/23 00:41:30;;;;;;;12.80;6.37;;;5.90;99.90;;;;;;5089759;28;20174;-68
2021/04/23 00:43:57;;;;;;;13.13;6.83;;;5.90;99.90;;;;;;5089953;28;20278;-67
2021/04/23 00:46:26;;;;;;;13.20;6.43;;;5.90;99.90;;;;;;5089884;28;20409;-68
2021/04/23 00:48:52;;;;;;;10.17;6.30;;;5.90;99.90;;;;;;5090102;28;20401;-68
2021/04/23 00:51:25;;;;;;;9.00;5.60;;;5.80;99.90;;;;;;5089832;28;20750;-68
2021/04/23 00:53:52;;;;;;;11.10;6.50;;;5.80;99.90;;;;;;5089679;28;20532;-68
2021/04/23 00:56:22;;;;;;;9.43;6.13;;;5.80;99.90;;;;;;5088855;28;20781;-67
2021/04/23 00:58:49;;;;;;;12.90;6.20;;;5.80;99.90;;;;;;5089460;28;20437;-67
2021/04/23 01:01:21;;;;;;;14.90;6.40;;;5.70;99.90;;;;;;5090115;28;20398;-68
2021/04/23 01:03:47;;;;;;;11.73;6.83;;;5.70;99.90;;;;;;5089514;28;20421;-67
2021/04/23 01:06:19;;;;;;;11.93;6.97;;;5.70;99.90;;;;;;5089482;28;20782;-68
2021/04/23 01:08:46;;;;;;;15.80;7.80;;;5.60;99.90;;;;;;5089506;28;20250;-67
2021/04/23 01:11:13;;;;;;;7.70;6.47;;;5.60;99.90;;;;;;5089417;28;20788;-68
2021/04/23 01:13:39;;;;;;;18.00;8.10;;;5.60;99.90;;;;;;5088239;28;20465;-67
2021/04/23 01:16:10;;;;;;;11.87;7.30;;;5.50;99.90;;;;;;5089770;28;20425;-68
2021/04/23 01:18:38;;;;;;;10.67;7.30;;;5.50;99.90;;;;;;5089240;28;20410;-68
2021/04/23 01:21:06;;;;;;;9.73;6.13;;;5.50;99.90;;;;;;5089141;28;20889;-67
2021/04/23 01:23:33;;;;;;;10.50;6.60;;;5.50;99.90;;;;;;5088892;28;20394;-68
2021/04/23 01:25:59;;;;;;;10.53;5.90;;;5.50;99.90;;;;;;5075054;28;20485;-67
2021/04/23 01:28:25;;;;;;;14.93;6.93;;;5.40;99.90;;;;;;5075582;28;20711;-67
2021/04/23 01:30:51;;;;;;;10.30;6.40;;;5.40;99.90;;;;;;5061836;28;20441;-68
2021/04/23 01:33:17;;;;;;;11.67;7.03;;;5.40;99.90;;;;;;5055327;28;20435;-67
2021/04/23 01:35:43;;;;;;;14.37;7.23;;;5.40;99.90;;;;;;5055440;28;20235;-67
2021/04/23 01:38:09;;;;;;;14.10;7.20;;;5.40;99.90;;;;;;5055370;28;20477;-67
2021/04/23 01:40:35;;;;;;;13.70;7.37;;;5.30;99.90;;;;;;5055409;28;20191;-67
2021/04/23 01:43:01;;;;;;;11.60;7.20;;;5.30;99.90;;;;;;5055312;28;20391;-67
2021/04/23 01:45:26;;;;;;;11.00;8.00;;;5.30;99.90;;;;;;5055914;28;20418;-68
2021/04/23 01:47:52;;;;;;;10.90;7.23;;;5.30;99.90;;;;;;5055720;28;20237;-67
2021/04/23 01:50:19;;;;;;;13.00;8.13;;;5.20;99.90;;;;;;5055148;28;20231;-67
2021/04/23 01:52:47;;;;;;;10.33;7.53;;;5.20;99.90;;;;;;5055146;28;20275;-67
2021/04/23 01:55:16;;;;;;;13.10;6.87;;;5.20;99.90;;;;;;5055054;28;20423;-67
2021/04/23 01:57:42;;;;;;;12.47;7.50;;;5.20;99.90;;;;;;5054852;28;20404;-67
2021/04/23 02:00:17;;;;;;;16.30;7.40;;;5.20;99.90;;;;;;5055642;28;20953;-68
2021/04/23 02:02:44;;;;;;;8.47;6.50;;;5.20;99.90;;;;;;5054968;28;20152;-67
2021/04/23 02:05:10;;;;;;;13.10;8.17;;;5.20;99.90;;;;;;5055487;28;20449;-67
2021/04/23 02:07:36;;;;;;;16.43;7.60;;;5.10;99.90;;;;;;5054723;28;20414;-67
2021/04/23 02:10:07;;;;;;;13.07;7.90;;;5.10;99.90;;;;;;5054838;28;20453;-68
2021/04/23 02:12:33;;;;;;;12.43;6.43;;;5.10;99.90;;;;;;5054807;28;20455;-67
2021/04/23 02:14:58;;;;;;;15.07;6.80;;;5.10;99.90;;;;;;5055561;28;20482;-67
2021/04/23 02:17:24;;;;;;;10.03;7.43;;;5.00;99.90;;;;;;5054965;28;20395;-67
2021/04/23 02:19:49;;;;;;;12.77;8.40;;;5.00;99.90;;;;;;5054663;28;20600;-67
2021/04/23 02:22:15;;;;;;;8.57;6.40;;;5.00;99.90;;;;;;5055115;28;20180;-67
2021/04/23 02:24:41;;;;;;;10.13;6.40;;;4.90;99.90;;;;;;5054447;28;20153;-67
2021/04/23 02:27:06;;;;;;;15.40;8.03;;;4.90;99.90;;;;;;5054521;28;20255;-68
2021/04/23 02:29:32;;;;;;;17.30;8.40;;;4.90;99.90;;;;;;5058683;28;20172;-67
2021/04/23 02:31:58;;;;;;;12.63;7.07;;;4.90;99.90;;;;;;5074611;28;20183;-67
2021/04/23 02:34:25;;;;;;;12.97;8.70;;;4.80;99.90;;;;;;5074366;28;20184;-67
2021/04/23 02:36:52;;;;;;;15.93;9.03;;;4.80;99.90;;;;;;5073297;28;20235;-67
2021/04/23 02:39:20;;;;;;;14.60;8.23;;;4.80;99.90;;;;;;5073347;28;20512;-67
2021/04/23 02:41:48;;;;;;;11.93;7.90;;;4.80;99.90;;;;;;5074216;28;20383;-67
2021/04/23 02:44:14;;;;;;;23.63;9.47;;;4.70;99.90;;;;;;5074534;28;20412;-68
2021/04/23 02:46:41;;;;;;;11.30;7.80;;;4.70;99.90;;;;;;5074118;28;20438;-67
2021/04/23 02:49:07;;;;;;;19.37;9.83;;;4.70;99.90;;;;;;5074147;28;20156;-67
2021/04/23 02:51:38;;;;;;;14.83;7.20;;;4.70;99.90;;;;;;5073899;28;20391;-68
2021/04/23 02:54:04;;;;;;;14.07;8.20;;;4.70;99.90;;;;;;5073728;28;20450;-67
2021/04/23 02:56:31;;;;;;;15.07;8.13;;;4.70;99.90;;;;;;5072918;28;20417;-68
2021/04/23 02:58:57;;;;;;;14.30;7.50;;;4.70;99.90;;;;;;5074981;28;20951;-70
2021/04/23 03:01:28;;;;;;;14.57;7.77;;;4.70;99.90;;;;;;5074388;28;20395;-70
2021/04/23 03:03:54;;;;;;;12.63;8.60;;;4.70;99.90;;;;;;5073604;28;20168;-70
2021/04/23 03:06:21;;;;;;;17.23;8.67;;;4.70;99.90;;;;;;5073490;28;20937;-70
2021/04/23 03:08:47;;;;;;;17.73;9.23;;;4.60;99.90;;;;;;5073635;28;20152;-70
2021/04/23 03:11:15;;;;;;;13.93;7.50;;;4.60;99.90;;;;;;5072832;28;20477;-70
2021/04/23 03:13:48;;;;;;;14.17;9.90;;;4.60;99.90;;;;;;5053508;28;20200;-70
2021/04/23 03:16:15;;;;;;;17.43;8.70;;;4.60;99.90;;;;;;5053635;28;20757;-70
2021/04/23 03:18:42;;;;;;;12.90;8.70;;;4.50;99.90;;;;;;5053441;28;20469;-70
2021/04/23 03:21:11;;;;;;;18.27;8.00;;;4.50;99.90;;;;;;5053433;28;20395;-70
2021/04/23 03:23:37;;;;;;;13.20;7.43;;;4.50;99.90;;;;;;5053393;28;20445;-70
2021/04/23 03:26:04;;;;;;;17.03;9.40;;;4.50;99.90;;;;;;5053351;28;20804;-70
2021/04/23 03:28:31;;;;;;;11.60;8.07;;;4.50;99.90;;;;;;5054089;28;20800;-70
2021/04/23 03:30:57;;;;;;;12.60;8.13;;;4.50;99.90;;;;;;5068609;28;20424;-70
2021/04/23 03:33:22;;;;;;;11.53;8.43;;;4.50;99.90;;;;;;5073159;28;20446;-70
2021/04/23 03:35:51;;;;;;;15.87;9.27;;;4.50;99.90;;;;;;5073382;28;20398;-70
2021/04/23 03:38:18;;;;;;;12.93;9.20;;;4.40;99.90;;;;;;5073111;28;20183;-70
2021/04/23 03:40:45;;;;;;;12.63;7.73;;;4.40;99.90;;;;;;5073090;28;20399;-70
2021/04/23 03:43:11;;;;;;;15.97;9.23;;;4.40;99.90;;;;;;5073494;28;20879;-70
2021/04/23 03:45:38;;;;;;;18.23;8.63;;;4.40;99.90;;;;;;5072404;28;20913;-70
2021/04/23 03:48:05;;;;;;;19.40;10.50;;;4.30;99.90;;;;;;5072967;28;20883;-70
2021/04/23 03:50:33;;;;;;;15.53;9.20;;;4.30;99.90;;;;;;5072853;28;20870;-70
2021/04/23 03:53:00;;;;;;;14.43;10.23;;;4.30;99.90;;;;;;5072825;28;20851;-70
2021/04/23 03:55:31;;;;;;;16.13;9.20;;;4.30;99.90;;;;;;5073177;28;20878;-70
2021/04/23 03:57:58;;;;;;;14.07;9.00;;;4.30;99.90;;;;;;5073201;28;20387;-70
2021/04/23 04:00:33;;;;;;;13.50;8.70;;;4.30;99.90;;;;;;5072941;28;20479;-70
2021/04/23 04:02:59;;;;;;;15.27;10.33;;;4.20;99.90;;;;;;5072335;28;20429;-70
2021/04/23 04:05:25;;;;;;;14.10;9.93;;;4.20;99.90;;;;;;5072882;28;20406;-70
2021/04/23 04:07:50;;;;;;;16.13;10.07;;;4.20;99.90;;;;;;5072652;28;20422;-70
2021/04/23 04:10:17;;;;;;;12.87;8.90;;;4.20;99.90;;;;;;5073023;28;20160;-70
2021/04/23 04:12:42;;;;;;;13.07;8.70;;;4.20;99.90;;;;;;5074188;28;20234;-70
2021/04/23 04:15:08;;;;;;;14.30;9.43;;;4.10;99.90;;;;;;5073274;28;20398;-70
2021/04/23 04:17:34;;;;;;;11.77;8.63;;;4.10;99.90;;;;;;5072804;28;20152;-70
2021/04/23 04:20:00;;;;;;;13.53;9.47;;;4.10;99.90;;;;;;5071916;28;20501;-70
2021/04/23 04:22:26;;;;;;;16.43;10.10;;;4.00;99.90;;;;;;5072690;28;20432;-70
2021/04/23 04:24:52;;;;;;;13.07;10.00;;;4.00;99.90;;;;;;5074050;28;20164;-70
2021/04/23 04:27:18;;;;;;;14.10;8.73;;;4.00;99.90;;;;;;5074050;28;20421;-70
2021/04/23 04:29:45;;;;;;;11.67;9.43;;;3.90;99.90;;;;;;5072838;28;20557;-70
2021/04/23 04:32:10;;;;;;;17.60;9.80;;;3.90;99.90;;;;;;5072856;28;20183;-70
2021/04/23 04:34:36;;;;;;;17.40;9.80;;;3.90;99.90;;;;;;5072502;28;20402;-70
2021/04/23 04:37:02;;;;;;;17.07;9.60;;;3.90;99.90;;;;;;5071640;28;20697;-70
2021/04/23 04:39:28;;;;;;;17.53;9.63;;;3.80;99.90;;;;;;5072855;28;20405;-70
2021/04/23 04:41:54;;;;;;;19.13;10.50;;;3.90;99.90;;;;;;5073469;28;20391;-70
2021/04/23 04:44:19;;;;;;;11.37;8.67;;;3.90;99.90;;;;;;5072710;28;20171;-70
2021/04/23 04:46:45;;;;;;;16.20;9.80;;;3.90;99.90;;;;;;5072311;28;20576;-70
2021/04/23 04:49:12;;;;;;;15.90;10.07;;;3.90;99.90;;;;;;5072475;28;20609;-70
2021/04/23 04:51:37;;;;;;;14.90;10.30;;;3.90;99.90;;;;;;5072510;28;20183;-70
2021/04/23 04:54:04;;;;;;;13.17;10.03;;;3.90;99.90;;;;;;5071612;28;20500;-70
2021/04/23 04:56:30;;;;;;;15.67;9.60;;;3.90;99.90;;;;;;5073047;28;20693;-70
2021/04/23 04:58:55;;;;;;;15.67;8.40;;;3.90;99.90;;;;;;5072630;28;20520;-70
2021/04/23 05:01:21;;;;;;;14.93;11.33;;;3.90;99.90;;;;;;5076140;28;20163;-70
2021/04/23 05:03:46;;;;;;;14.20;9.97;;;4.00;99.90;;;;;;5076149;28;20198;-70
2021/04/23 05:06:12;;;;;;;15.93;10.57;;;4.00;99.90;;;;;;5076305;28;20191;-70
2021/04/23 05:08:38;;;;;;;14.60;9.33;;;4.00;99.90;;;;;;5076987;28;20149;-70
2021/04/23 05:11:04;;;;;;;14.57;9.70;;;3.90;99.90;;;;;;5076214;28;20417;-71
2021/04/23 05:13:30;;;;;;;21.50;10.73;;;3.90;99.90;;;;;;5076049;28;20206;-70
2021/04/23 05:15:56;;;;;;;16.50;10.23;;;3.90;99.90;;;;;;5076044;28;20867;-70
2021/04/23 05:18:22;;;;;;;14.20;9.17;;;3.90;99.90;;;;;;5076195;28;20164;-70
2021/04/23 05:20:47;;;;;;;19.03;11.20;;;3.90;99.90;;;;;;5075837;28;20160;-70
2021/04/23 05:23:13;;;;;;;17.80;10.47;;;4.00;99.90;;;;;;5077348;28;20401;-70
2021/04/23 05:25:39;;;;;;;19.30;11.20;;;4.00;99.90;;;;;;5076741;28;20191;-70
2021/04/23 05:28:05;;;;;;;17.27;10.20;;;4.10;99.90;;;;;;5075057;28;20608;-70
2021/04/23 05:30:33;;;;;;;17.80;9.57;;;4.10;99.90;;;;;;5075565;28;20476;-70
2021/04/23 05:33:01;;;;;;;15.23;11.70;;;4.20;99.90;;;;;;5075726;28;20472;-70
2021/04/23 05:35:28;;;;;;;22.27;10.60;;;4.30;99.90;;;;;;5075608;28;20387;-70
2021/04/23 05:37:55;;;;;;;15.87;10.33;;;4.30;99.90;;;;;;5075939;28;20383;-70
2021/04/23 05:40:25;;;;;;;20.23;11.47;;;4.30;99.90;;;;;;5076408;28;20394;-70
2021/04/23 05:42:52;;;;;;;16.70;11.17;;;4.40;99.90;;;;;;5075635;28;20797;-70
2021/04/23 05:45:19;;;;;;;23.13;11.93;;;4.50;99.90;;;;;;5074469;28;20421;-70
2021/04/23 05:47:45;;;;;;;17.73;11.43;;;4.50;99.90;;;;;;5075386;28;20448;-70
2021/04/23 05:50:12;;;;;;;13.33;9.57;;;4.60;99.90;;;;;;5075380;28;20489;-70
2021/04/23 05:52:38;;;;;;;18.33;11.90;;;4.60;99.90;;;;;;5075640;28;20450;-70
2021/04/23 05:55:05;;;;;;;20.57;13.33;;;4.70;99.90;;;;;;5075686;28;20394;-70
2021/04/23 05:57:31;;;;;;;17.57;11.13;;;4.70;99.90;;;;;;5075182;28;20390;-70
2021/04/23 05:59:56;;;;;;;19.37;11.13;;;4.90;99.90;;;;;;5075202;28;20890;-70
2021/04/23 06:02:22;;;;;;;21.83;11.57;;;4.90;99.90;;;;;;5074339;28;20179;-70
2021/04/23 06:04:47;;;;;;;20.03;11.63;;;5.00;99.90;;;;;;5075910;28;20152;-70
2021/04/23 06:07:13;;;;;;;15.03;10.73;;;5.10;99.90;;;;;;5075410;28;20704;-71
2021/04/23 06:09:39;;;;;;;15.37;9.63;;;5.20;99.90;;;;;;5075471;28;20198;-70
2021/04/23 06:12:05;;;;;;;18.07;10.90;;;5.20;99.90;;;;;;5074675;28;20161;-70
2021/04/23 06:14:30;;;;;;;15.40;10.37;;;5.30;99.90;;;;;;5074768;28;20675;-70
2021/04/23 06:16:56;;;;;;;12.53;9.40;;;5.40;99.90;;;;;;5074633;28;20913;-70
2021/04/23 06:19:22;;;;;;;17.13;11.10;;;5.50;99.90;;;;;;5075496;28;20541;-70
2021/04/23 06:21:47;;;;;;;13.90;10.10;;;5.60;99.90;;;;;;5075066;28;20168;-71
2021/04/23 06:24:13;;;;;;;15.50;9.57;;;5.70;99.90;;;;;;5075069;28;20164;-70
2021/04/23 06:26:39;;;;;;;14.10;9.17;;;5.80;99.90;;;;;;5074717;28;20247;-70
2021/04/23 06:29:04;;;;;;;16.03;9.23;;;5.80;99.90;;;;;;5074410;28;20497;-70
2021/04/23 06:31:30;;;;;;;12.13;8.43;;;5.90;99.90;;;;;;5074762;28;20563;-70
2021/04/23 06:33:56;;;;;;;9.90;6.57;;;6.00;99.90;;;;;;5075642;28;20180;-70
2021/04/23 06:36:22;;;;;;;15.83;7.40;;;6.10;99.90;;;;;;5074096;28;20501;-71
2021/04/23 06:38:55;;;;;;;15.60;7.47;;;6.20;99.90;;;;;;5075654;28;20168;-70
2021/04/23 06:41:21;;;;;;;14.70;6.60;;;6.30;99.90;;;;;;5074410;28;20160;-70
2021/04/23 06:43:48;;;;;;;16.03;6.23;;;6.50;99.90;;;;;;5074423;28;20905;-70
2021/04/23 06:46:14;;;;;;;16.53;6.47;;;6.50;99.90;;;;;;5074061;28;20692;-70
2021/04/23 06:48:39;;;;;;;11.00;6.37;;;6.60;99.90;;;;;;5073843;28;20480;-70
2021/04/23 06:51:05;;;;;;;16.70;7.10;;;6.80;99.90;;;;;;5074311;28;20247;-71
2021/04/23 06:53:31;;;;;;;11.20;6.90;;;6.90;99.90;;;;;;5073180;28;20261;-71
2021/04/23 06:55:58;;;;;;;8.57;6.27;;;7.00;99.90;;;;;;5073735;28;20391;-70
2021/04/23 06:58:23;;;;;;;17.97;7.77;;;7.10;99.90;;;;;;5073796;28;20391;-70
2021/04/23 07:00:49;;;;;;;12.80;6.57;;;7.30;99.90;;;;;;5073760;28;20414;-70
2021/04/23 07:03:15;;;;;;;5.80;4.83;;;7.30;99.90;;;;;;5073962;28;20247;-70
2021/04/23 07:05:43;;;;;;;9.03;5.70;;;7.50;99.90;;;;;;5074298;28;20162;-71
2021/04/23 07:08:09;;;;;;;7.97;5.07;;;7.60;99.90;;;;;;5074123;28;20672;-71
2021/04/23 07:10:35;;;;;;;9.10;5.60;;;7.90;99.90;;;;;;5072843;28;20474;-70
2021/04/23 07:13:02;;;;;;;13.10;5.37;;;8.10;99.90;;;;;;5073431;28;20870;-71
2021/04/23 07:15:30;;;;;;;12.67;5.23;;;8.10;99.90;;;;;;5074136;28;20394;-70
2021/04/23 07:17:56;;;;;;;7.30;4.40;;;8.20;99.90;;;;;;5073671;28;20929;-70
2021/04/23 07:20:23;;;;;;;13.33;5.37;;;8.30;99.90;;;;;;5074131;28;20418;-71
2021/04/23 07:22:50;;;;;;;9.97;4.77;;;8.50;99.90;;;;;;5073024;28;20723;-71
2021/04/23 07:25:17;;;;;;;8.33;4.50;;;8.60;99.90;;;;;;5073423;28;20429;-70
2021/04/23 07:27:43;;;;;;;6.60;4.40;;;8.90;99.90;;;;;;5072501;28;20422;-70
2021/04/23 07:30:14;;;;;;;7.13;4.50;;;9.20;99.90;;;;;;5073188;28;20424;-71
2021/04/23 07:32:40;;;;;;;8.77;3.93;;;9.30;99.90;;;;;;5073313;28;20986;-71
2021/04/23 07:35:07;;;;;;;6.00;4.20;;;9.50;99.90;;;;;;5074017;28;20393;-71
2021/04/23 07:37:33;;;;;;;7.20;3.60;;;9.60;99.90;;;;;;5073277;28;20387;-71
2021/04/23 07:39:59;;;;;;;7.77;4.10;;;9.80;99.90;;;;;;5073225;28;20533;-71
2021/04/23 07:42:24;;;;;;;8.20;4.47;;;10.10;99.40;;;;;;5073216;28;20163;-71
2021/04/23 07:44:50;;;;;;;8.43;4.10;;;10.60;97.60;;;;;;5072460;28;20183;-71
2021/04/23 07:47:16;;;;;;;7.50;3.37;;;11.70;93.80;;;;;;5073142;28;20198;-71
2021/04/23 07:49:46;;;;;;;7.03;4.00;;;12.90;84.70;;;;;;5073986;28;20387;-71
2021/04/23 07:52:12;;;;;;;8.80;3.93;;;14.30;72.60;;;;;;5072962;28;20881;-71
2021/04/23 07:54:38;;;;;;;7.47;3.47;;;15.50;61.70;;;;;;5073323;28;20418;-71
2021/04/23 07:57:04;;;;;;;6.20;3.40;;;16.50;56.40;;;;;;5073374;28;20401;-71
2021/04/23 07:59:29;;;;;;;8.93;3.70;;;17.50;53.30;;;;;;5073083;28;20194;-70
2021/04/23 08:01:56;;;;;;;7.40;3.67;;;18.00;50.90;;;;;;5071888;28;20500;-70
2021/04/23 08:04:21;;;;;;;6.20;3.90;;;17.70;49.90;;;;;;5073552;28;20175;-71
2021/04/23 08:06:47;;;;;;;7.53;3.80;;;17.30;50.90;;;;;;5073303;28;20405;-70
2021/04/23 08:09:13;;;;;;;5.83;3.73;;;16.90;50.10;;;;;;5072943;28;20186;-71
2021/04/23 08:11:40;;;;;;;5.27;2.97;;;17.00;49.70;;;;;;5073222;28;20160;-71
2021/04/23 08:14:06;;;;;;;6.07;3.30;;;17.70;49.40;;;;;;5072720;28;20209;-71
2021/04/23 08:16:31;;;;;;;4.80;3.87;;;18.30;48.30;;;;;;5072830;28;20390;-71
2021/04/23 08:18:57;;;;;;;7.00;3.40;;;18.50;46.50;;;;;;5072715;28;20528;-71
2021/04/23 08:21:23;;;;;;;5.37;4.00;;;18.80;46.30;;;;;;5073088;28;20254;-71
2021/04/23 08:23:48;;;;;;;6.30;3.73;;;18.90;45.50;;;;;;5072811;28;20390;-71
2021/04/23 08:26:15;;;;;;;7.30;4.17;;;19.20;44.80;;;;;;5073279;28;20620;-70
2021/04/23 08:28:41;;;;;;;5.50;3.83;;;19.90;44.20;;;;;;5072893;28;20711;-70
2021/04/23 08:31:06;;;;;;;6.83;4.10;;;20.70;42.20;;;;;;5072807;28;20425;-71
2021/04/23 08:33:32;;;;;;;9.40;4.27;;;20.50;41.40;;;;;;5073378;28;20553;-68
2021/04/23 08:35:58;;;;;;;7.77;3.30;;;19.60;42.30;;;;;;5075431;28;20187;-70
2021/04/23 08:38:25;;;;;;;4.47;3.83;;;18.60;43.80;;;;;;5076607;28;20152;-70
2021/04/23 08:40:55;;;;;;;6.87;4.60;;;17.50;45.30;;;;;;5076890;28;20154;-70
2021/04/23 08:43:21;;;;;;;10.03;4.37;;;16.60;47.30;;;;;;5076731;28;20455;-70
2021/04/23 08:45:48;;;;;;;6.53;4.37;;;15.80;48.10;;;;;;5076898;28;20949;-70
2021/04/23 08:48:14;;;;;;;11.40;5.00;;;15.20;49.10;;;;;;5077338;28;20401;-70
2021/04/23 08:50:40;;;;;;;9.00;4.20;;;14.60;50.40;;;;;;5076669;28;20448;-70
2021/04/23 08:53:07;;;;;;;7.50;4.30;;;14.00;50.80;;;;;;5075614;28;21014;-70
2021/04/23 08:55:33;;;;;;;6.67;4.53;;;13.60;51.00;;;;;;5076606;28;20167;-70
2021/04/23 08:57:59;;;;;;;9.93;5.40;;;13.30;52.10;;;;;;5076214;28;20386;-70
2021/04/23 09:00:25;;;;;;;8.90;6.13;;;13.10;53.60;;;;;;5076521;28;20425;-70
2021/04/23 09:02:50;;;;;;;5.30;4.67;;;12.80;54.00;;;;;;5076958;28;20587;-70
2021/04/23 09:05:16;;;;;;;7.00;5.33;;;12.50;54.90;;;;;;5075953;28;20168;-70
2021/04/23 09:07:57;;;;;;;10.67;5.93;;;12.30;55.60;;;;;;5076270;28;20239;-70
2021/04/23 09:10:23;;;;;;;8.80;5.20;;;12.10;56.00;;;;;;5075236;28;20414;-70
2021/04/23 09:15:43;;;;;;;7.93;5.70;;;12.00;55.80;;;;;;5091418;28;20511;-71
2021/04/23 09:18:13;;;;;;;10.87;5.93;;;12.00;56.90;;;;;;5090711;28;20421;-70
2021/04/23 09:20:42;;;;;;;6.73;5.03;;;12.00;57.10;;;;;;5090493;28;20381;-71
2021/04/23 09:23:16;;;;;;;11.07;5.70;;;11.70;56.80;;;;;;5090492;28;20818;-71
2021/04/23 09:28:44;;;;;;;8.20;4.80;;;11.80;57.60;;;;;;5131068;27;21083;-70
2021/04/23 09:31:31;;;;;;;7.60;5.37;;;12.10;58.30;;;;;;5131367;28;20949;-70
2021/04/23 09:33:59;;;;;;;5.30;4.50;;;12.50;57.50;;;;;;5130529;28;20472;-70
2021/04/23 09:36:27;;;;;;;6.60;5.17;;;12.70;57.60;;;;;;5131396;28;20402;-70
2021/04/23 09:39:13;;;;;;;7.60;4.53;;;12.90;56.50;;;;;;5131108;28;20400;-70
2021/04/23 09:41:41;;;;;;;6.27;4.57;;;13.10;57.00;;;;;;5131243;28;20398;-70
2021/04/23 09:49:42;;;;;;;8.13;4.50;;;14.10;55.40;;;;;;5131508;27;20865;-69
2021/04/23 09:52:11;;;;;;;7.07;5.60;;;14.40;54.20;;;;;;5131473;28;20745;-69
2021/04/23 09:54:37;;;;;;;8.23;5.07;;;14.20;54.10;;;;;;5131261;28;20796;-69
2021/04/23 09:57:13;;;;;;;8.43;4.70;;;14.00;55.10;;;;;;5131297;28;20406;-69
2021/04/23 09:59:49;;;;;;;9.40;5.07;;;14.20;55.00;;;;;;5127694;28;20839;-69
2021/04/23 10:02:16;;;;;;;7.30;5.40;;;14.30;53.90;;;;;;5110681;28;20462;-69
2021/04/23 10:04:42;;;;;;;8.20;4.77;;;14.60;53.50;;;;;;5110722;28;20392;-69
2021/04/23 10:17:47;;;;;;;7.13;4.40;;;14.40;53.20;;;;;;5097743;27;21027;-70
2021/04/23 10:20:17;;;;;;;11.40;4.83;;;13.90;53.40;;;;;;5090437;28;20465;-70
2021/04/23 10:22:43;;;;;;;7.70;4.73;;;13.70;54.00;;;;;;5090335;28;20382;-70
2021/04/23 10:25:10;;;;;;;11.40;5.83;;;13.60;54.70;;;;;;5090416;28;20416;-70
2021/04/23 10:27:36;;;;;;;8.20;5.03;;;13.50;55.20;;;;;;5090993;28;20382;-70
2021/04/23 10:30:07;;;;;;;6.43;4.40;;;13.30;55.40;;;;;;5090393;28;20952;-70
2021/04/23 10:32:33;;;;;;;7.67;5.23;;;13.20;56.20;;;;;;5090351;28;20377;-70
2021/04/23 10:34:59;;;;;;;8.97;5.50;;;13.10;56.20;;;;;;5090115;28;20964;-70
2021/04/23 10:37:25;;;;;;;11.53;5.70;;;13.00;56.10;;;;;;5090124;28;20484;-70
2021/04/23 10:39:53;;;;;;;8.57;5.00;;;12.90;56.50;;;;;;5089985;28;20183;-70
2021/04/23 10:42:40;;;;;;;7.53;5.77;;;12.80;57.00;;;;;;5090923;28;20727;-70
2021/04/23 10:45:21;;;;;;;8.40;5.70;;;12.70;57.90;;;;;;5089560;28;20425;-70
2021/04/23 10:47:49;;;;;;;9.67;5.60;;;12.60;57.70;;;;;;5090093;28;20483;-70
2021/04/23 10:50:18;;;;;;;7.10;5.90;;;12.50;57.70;;;;;;5089778;28;20427;-70
2021/04/23 10:53:05;;;;;;;12.13;5.83;;;12.40;57.90;;;;;;5089911;28;20765;-70
2021/04/23 10:55:49;;;;;;;9.50;5.60;;;12.30;58.60;;;;;;5088865;28;20428;-70
2021/04/23 10:58:36;;;;;;;8.97;5.10;;;12.20;57.70;;;;;;5090295;28;20507;-70
2021/04/23 11:01:23;;;;;;;6.40;5.17;;;12.10;57.70;;;;;;5089656;28;20454;-70
2021/04/23 11:04:10;;;;;;;6.73;5.10;;;12.00;56.90;;;;;;5089634;28;20397;-70
2021/04/23 11:06:38;;;;;;;9.80;4.80;;;11.90;57.40;;;;;;5088700;28;20473;-70
2021/04/23 11:11:42;;;;;;;6.63;5.20;;;11.80;57.90;;;;;;5111988;27;20505;-70
2021/04/23 11:14:28;;;;;;;12.93;6.17;;;11.80;59.20;;;;;;5111002;28;20763;-70
2021/04/23 11:17:15;;;;;;;7.37;4.80;;;11.90;59.00;;;;;;5110825;28;20392;-70
2021/04/23 11:19:40;;;;;;;6.40;4.97;;;11.80;57.80;;;;;;5095535;28;20483;-70
2021/04/23 11:22:09;;;;;;;9.37;5.53;;;11.90;57.40;;;;;;5110516;28;20817;-70
2021/04/23 11:24:36;;;;;;;13.60;5.70;;;11.80;56.90;;;;;;5107552;28;20398;-70
2021/04/23 11:27:04;;;;;;;7.60;5.70;;;11.80;57.80;;;;;;5091022;28;20385;-70
2021/04/23 11:40:20;;;;;;;10.53;6.80;;;11.60;60.40;;;;;;5047550;28;20597;-70
2021/04/23 11:42:48;;;;;;;10.30;6.40;;;11.60;59.80;;;;;;5034254;28;20412;-70
2021/04/23 11:45:23;;;;;;;9.03;7.00;;;11.60;58.90;;;;;;5026940;28;20392;-70
2021/04/23 11:47:52;;;;;;;8.83;5.70;;;11.60;59.00;;;;;;5027003;28;20449;-70
2021/04/23 11:50:21;;;;;;;10.17;5.40;;;11.60;59.10;;;;;;5026771;28;20380;-70
2021/04/23 11:52:57;;;;;;;7.63;5.70;;;11.50;58.60;;;;;;5026512;28;20404;-70
2021/04/23 11:55:29;;;;;;;6.73;5.37;;;11.50;58.90;;;;;;5027879;28;20392;-70
2021/04/23 11:58:06;;;;;;;13.03;6.50;;;11.50;58.90;;;;;;5026766;28;20483;-70
2021/04/23 12:00:32;;;;;;;6.77;5.77;;;11.50;58.60;;;;;;5027150;28;20419;-71
2021/04/23 12:02:59;;;;;;;7.67;5.33;;;11.50;58.90;;;;;;5026662;28;20809;-71
2021/04/23 12:08:20;;;;;;;7.43;6.07;;;11.50;59.70;;;;;;5111167;27;20509;-70
2021/04/23 12:10:49;;;;;;;6.70;6.03;;;11.60;59.80;;;;;;5111449;28;20480;-70
2021/04/23 12:13:18;;;;;;;13.77;6.83;;;11.60;59.90;;;;;;5110661;28;20826;-70
2021/04/23 12:15:46;;;;;;;9.23;5.90;;;11.70;60.10;;;;;;5105855;28;20417;-70
2021/04/23 12:18:12;;;;;;;11.40;7.27;;;11.70;61.20;;;;;;5090345;28;20483;-70
2021/04/23 12:23:18;;;;;;;7.17;6.03;;;11.70;59.50;;;;;;5111457;27;20574;-71
2021/04/23 12:25:50;;;;;;;9.30;6.23;;;11.80;58.70;;;;;;5111291;28;20420;-71
2021/04/23 12:28:19;;;;;;;9.67;6.13;;;11.80;58.00;;;;;;5110622;28;20474;-71
2021/04/23 12:30:46;;;;;;;14.20;6.90;;;11.90;57.30;;;;;;5110727;28;20391;-71
2021/04/23 12:33:12;;;;;;;8.33;6.47;;;11.90;57.00;;;;;;5109794;28;20400;-71
2021/04/23 12:35:40;;;;;;;12.47;6.67;;;11.90;57.20;;;;;;5110579;28;20457;-71
2021/04/23 12:38:08;;;;;;;9.67;6.33;;;11.90;57.60;;;;;;5111456;28;20155;-71
2021/04/23 12:43:20;;;;;;;8.60;6.63;;;11.80;57.10;;;;;;5131383;27;20561;-69
2021/04/23 12:45:53;;;;;;;9.20;6.53;;;11.80;57.20;;;;;;5131564;28;20399;-69
2021/04/23 12:48:21;;;;;;;8.30;6.27;;;11.80;57.90;;;;;;5131302;28;20383;-69
2021/04/23 12:50:49;;;;;;;11.83;6.13;;;11.80;58.00;;;;;;5131255;28;20407;-69
2021/04/23 12:53:15;;;;;;;7.50;5.80;;;11.80;58.00;;;;;;5132026;28;20422;-69
2021/04/23 12:55:42;;;;;;;7.77;6.73;;;11.80;58.50;;;;;;5131296;28;20482;-69
2021/04/23 12:58:09;;;;;;;12.37;7.60;;;11.90;58.80;;;;;;5131179;28;20425;-69
2021/04/23 13:00:36;;;;;;;11.37;6.87;;;11.90;58.70;;;;;;5131277;28;20403;-69
2021/04/23 13:03:02;;;;;;;11.00;8.00;;;11.90;58.50;;;;;;5131048;28;20950;-69
2021/04/23 13:05:28;;;;;;;13.53;6.77;;;11.90;58.30;;;;;;5131067;28;20403;-69
2021/04/23 13:08:00;;;;;;;13.23;6.57;;;11.90;58.30;;;;;;5130986;28;20417;-69
2021/04/23 13:10:29;;;;;;;10.17;6.57;;;11.80;58.70;;;;;;5130923;28;20742;-69
2021/04/23 13:13:14;;;;;;;12.10;7.90;;;11.80;58.80;;;;;;5130802;28;20391;-71
2021/04/23 13:18:28;;;;;;;8.03;6.20;;;11.80;59.30;;;;;;5132303;27;20921;-70
2021/04/23 13:20:59;;;;;;;8.00;6.10;;;11.80;58.90;;;;;;5131764;28;20406;-70
2021/04/23 13:23:36;;;;;;;10.87;6.90;;;11.90;60.10;;;;;;5129543;28;20470;-71
2021/04/23 13:26:04;;;;;;;9.60;7.83;;;11.90;59.60;;;;;;5110770;28;20446;-71
2021/04/23 13:28:30;;;;;;;7.93;7.13;;;11.90;58.70;;;;;;5113934;28;20811;-71
2021/04/23 13:30:59;;;;;;;8.00;5.97;;;11.80;58.70;;;;;;5131232;28;20383;-70
2021/04/23 13:41:29;;;;;;;12.17;7.40;;;11.80;57.80;;;;;;5100873;27;20515;-70
2021/04/23 13:44:16;;;;;;;10.10;6.70;;;11.80;57.70;;;;;;5090514;28;20434;-71
2021/04/23 13:46:45;;;;;;;7.53;6.47;;;11.80;57.80;;;;;;5077125;28;20397;-70
2021/04/23 13:49:14;;;;;;;7.00;5.13;;;11.80;58.40;;;;;;5090838;28;20381;-71
2021/04/23 13:51:42;;;;;;;8.43;5.70;;;11.80;58.90;;;;;;5090905;28;20389;-70